sensor_id;sensor_type;location;lat;lon;timestamp;P1;durP1;ratioP1;P2;durP2;ratioP2
47860;SDS011;33620;52.340;5.984;2024-03-08T00:00:10;48.35;;;23.73;;
47860;SDS011;33620;52.340;5.984;2024-03-08T00:02:39;48.40;;;24.95;;
47860;SDS011;33620;52.340;5.984;2024-03-08T00:05:06;49.15;;;24.33;;
47860;SDS011;33620;52.340;5.984;2024-03-08T00:07:33;48.08;;;24.38;;
47860;SDS011;33620;52.340;5.984;2024-03-08T00:10:03;51.10;;;24.92;;
47860;SDS011;33620;52.340;5.984;2024-03-08T00:12:29;53.42;;;23.85;;
47860;SDS011;33620;52.340;5.984;2024-03-08T00:14:55;48.22;;;23.13;;
47860;SDS011;33620;52.340;5.984;2024-03-08T00:17:21;54.67;;;24.58;;
47860;SDS011;33620;52.340;5.984;2024-03-08T00:19:48;47.17;;;25.00;;
47860;SDS011;33620;52.340;5.984;2024-03-08T00:22:14;51.15;;;23.67;;
47860;SDS011;33620;52.340;5.984;2024-03-08T00:24:40;47.47;;;24.55;;
47860;SDS011;33620;52.340;5.984;2024-03-08T00:27:06;48.35;;;24.83;;
47860;SDS011;33620;52.340;5.984;2024-03-08T00:29:31;46.08;;;24.23;;
47860;SDS011;33620;52.340;5.984;2024-03-08T00:31:56;48.85;;;24.40;;
47860;SDS011;33620;52.340;5.984;2024-03-08T00:34:22;47.90;;;25.65;;
47860;SDS011;33620;52.340;5.984;2024-03-08T00:36:48;46.22;;;24.70;;
47860;SDS011;33620;52.340;5.984;2024-03-08T00:39:14;50.42;;;27.08;;
47860;SDS011;33620;52.340;5.984;2024-03-08T00:41:39;51.22;;;25.92;;
47860;SDS011;33620;52.340;5.984;2024-03-08T00:44:04;48.70;;;26.50;;
47860;SDS011;33620;52.340;5.984;2024-03-08T00:46:30;44.03;;;24.38;;
47860;SDS011;33620;52.340;5.984;2024-03-08T00:48:56;50.58;;;24.75;;
47860;SDS011;33620;52.340;5.984;2024-03-08T00:51:22;49.30;;;24.90;;
47860;SDS011;33620;52.340;5.984;2024-03-08T00:53:47;47.15;;;24.33;;
47860;SDS011;33620;52.340;5.984;2024-03-08T00:56:12;45.83;;;23.95;;
47860;SDS011;33620;52.340;5.984;2024-03-08T00:58:38;48.72;;;25.05;;
47860;SDS011;33620;52.340;5.984;2024-03-08T01:01:03;47.97;;;24.27;;
47860;SDS011;33620;52.340;5.984;2024-03-08T01:03:30;46.72;;;24.65;;
47860;SDS011;33620;52.340;5.984;2024-03-08T01:05:59;47.35;;;25.23;;
47860;SDS011;33620;52.340;5.984;2024-03-08T01:08:26;44.28;;;23.30;;
47860;SDS011;33620;52.340;5.984;2024-03-08T01:10:52;48.38;;;23.25;;
47860;SDS011;33620;52.340;5.984;2024-03-08T01:13:17;48.90;;;27.00;;
47860;SDS011;33620;52.340;5.984;2024-03-08T01:15:44;47.28;;;23.60;;
47860;SDS011;33620;52.340;5.984;2024-03-08T01:18:09;46.00;;;25.13;;
47860;SDS011;33620;52.340;5.984;2024-03-08T01:20:35;46.35;;;24.92;;
47860;SDS011;33620;52.340;5.984;2024-03-08T01:23:00;51.13;;;26.75;;
47860;SDS011;33620;52.340;5.984;2024-03-08T01:25:26;46.30;;;24.13;;
47860;SDS011;33620;52.340;5.984;2024-03-08T01:27:52;47.10;;;24.50;;
47860;SDS011;33620;52.340;5.984;2024-03-08T01:30:18;46.65;;;24.15;;
47860;SDS011;33620;52.340;5.984;2024-03-08T01:32:44;46.30;;;24.00;;
47860;SDS011;33620;52.340;5.984;2024-03-08T01:35:09;49.95;;;26.40;;
47860;SDS011;33620;52.340;5.984;2024-03-08T01:37:35;45.63;;;24.75;;
47860;SDS011;33620;52.340;5.984;2024-03-08T01:40:01;47.00;;;24.88;;
47860;SDS011;33620;52.340;5.984;2024-03-08T01:42:28;48.40;;;24.42;;
47860;SDS011;33620;52.340;5.984;2024-03-08T01:44:53;49.45;;;25.48;;
47860;SDS011;33620;52.340;5.984;2024-03-08T01:47:19;47.03;;;25.35;;
47860;SDS011;33620;52.340;5.984;2024-03-08T01:49:47;47.05;;;24.80;;
47860;SDS011;33620;52.340;5.984;2024-03-08T01:52:14;47.30;;;24.08;;
47860;SDS011;33620;52.340;5.984;2024-03-08T01:54:40;49.53;;;24.75;;
47860;SDS011;33620;52.340;5.984;2024-03-08T01:57:06;50.92;;;25.48;;
47860;SDS011;33620;52.340;5.984;2024-03-08T01:59:31;49.80;;;24.75;;
47860;SDS011;33620;52.340;5.984;2024-03-08T02:01:57;49.03;;;24.55;;
47860;SDS011;33620;52.340;5.984;2024-03-08T02:04:26;47.47;;;25.33;;
47860;SDS011;33620;52.340;5.984;2024-03-08T02:06:52;52.60;;;26.33;;
47860;SDS011;33620;52.340;5.984;2024-03-08T02:09:17;45.17;;;24.13;;
47860;SDS011;33620;52.340;5.984;2024-03-08T02:11:42;50.28;;;25.85;;
47860;SDS011;33620;52.340;5.984;2024-03-08T02:14:08;49.00;;;25.27;;
47860;SDS011;33620;52.340;5.984;2024-03-08T02:16:34;45.45;;;24.40;;
47860;SDS011;33620;52.340;5.984;2024-03-08T02:19:00;45.38;;;24.38;;
47860;SDS011;33620;52.340;5.984;2024-03-08T02:21:25;46.50;;;26.08;;
47860;SDS011;33620;52.340;5.984;2024-03-08T02:23:51;46.40;;;23.42;;
47860;SDS011;33620;52.340;5.984;2024-03-08T02:26:17;49.05;;;25.38;;
47860;SDS011;33620;52.340;5.984;2024-03-08T02:28:43;45.67;;;24.48;;
47860;SDS011;33620;52.340;5.984;2024-03-08T02:31:10;47.88;;;24.63;;
47860;SDS011;33620;52.340;5.984;2024-03-08T02:33:35;54.63;;;26.27;;
47860;SDS011;33620;52.340;5.984;2024-03-08T02:36:01;47.63;;;23.58;;
47860;SDS011;33620;52.340;5.984;2024-03-08T02:38:26;52.55;;;28.20;;
47860;SDS011;33620;52.340;5.984;2024-03-08T02:40:52;50.53;;;26.63;;
47860;SDS011;33620;52.340;5.984;2024-03-08T02:43:19;48.28;;;23.52;;
47860;SDS011;33620;52.340;5.984;2024-03-08T02:45:47;48.80;;;25.67;;
47860;SDS011;33620;52.340;5.984;2024-03-08T02:48:13;47.42;;;26.58;;
47860;SDS011;33620;52.340;5.984;2024-03-08T02:50:40;54.88;;;26.13;;
47860;SDS011;33620;52.340;5.984;2024-03-08T02:53:07;48.78;;;25.77;;
47860;SDS011;33620;52.340;5.984;2024-03-08T02:55:33;49.95;;;26.77;;
47860;SDS011;33620;52.340;5.984;2024-03-08T02:58:04;53.20;;;27.35;;
47860;SDS011;33620;52.340;5.984;2024-03-08T03:00:29;50.65;;;26.85;;
47860;SDS011;33620;52.340;5.984;2024-03-08T03:02:56;49.92;;;26.08;;
47860;SDS011;33620;52.340;5.984;2024-03-08T03:05:22;43.95;;;25.50;;
47860;SDS011;33620;52.340;5.984;2024-03-08T03:07:48;50.15;;;26.42;;
47860;SDS011;33620;52.340;5.984;2024-03-08T03:10:14;48.95;;;27.00;;
47860;SDS011;33620;52.340;5.984;2024-03-08T03:12:43;46.80;;;26.60;;
47860;SDS011;33620;52.340;5.984;2024-03-08T03:15:12;51.22;;;26.48;;
47860;SDS011;33620;52.340;5.984;2024-03-08T03:17:38;47.95;;;26.27;;
47860;SDS011;33620;52.340;5.984;2024-03-08T03:20:05;46.17;;;25.33;;
47860;SDS011;33620;52.340;5.984;2024-03-08T03:22:36;48.05;;;26.00;;
47860;SDS011;33620;52.340;5.984;2024-03-08T03:25:02;46.17;;;26.58;;
47860;SDS011;33620;52.340;5.984;2024-03-08T03:27:29;51.08;;;26.85;;
47860;SDS011;33620;52.340;5.984;2024-03-08T03:29:55;48.88;;;26.25;;
47860;SDS011;33620;52.340;5.984;2024-03-08T03:32:22;48.50;;;26.55;;
47860;SDS011;33620;52.340;5.984;2024-03-08T03:34:48;43.17;;;26.13;;
47860;SDS011;33620;52.340;5.984;2024-03-08T03:37:13;44.30;;;25.30;;
47860;SDS011;33620;52.340;5.984;2024-03-08T03:39:39;49.05;;;25.63;;
47860;SDS011;33620;52.340;5.984;2024-03-08T03:42:14;51.53;;;27.52;;
47860;SDS011;33620;52.340;5.984;2024-03-08T03:44:41;48.08;;;25.60;;
47860;SDS011;33620;52.340;5.984;2024-03-08T03:47:09;48.13;;;26.80;;
47860;SDS011;33620;52.340;5.984;2024-03-08T03:49:34;49.60;;;27.52;;
47860;SDS011;33620;52.340;5.984;2024-03-08T03:51:59;50.80;;;26.98;;
47860;SDS011;33620;52.340;5.984;2024-03-08T03:54:25;49.28;;;27.52;;
47860;SDS011;33620;52.340;5.984;2024-03-08T03:56:50;49.63;;;27.08;;
47860;SDS011;33620;52.340;5.984;2024-03-08T03:59:18;48.95;;;27.55;;
47860;SDS011;33620;52.340;5.984;2024-03-08T04:01:43;51.75;;;28.15;;
47860;SDS011;33620;52.340;5.984;2024-03-08T04:04:09;47.47;;;26.45;;
47860;SDS011;33620;52.340;5.984;2024-03-08T04:06:34;48.67;;;27.60;;
47860;SDS011;33620;52.340;5.984;2024-03-08T04:09:00;49.78;;;27.02;;
47860;SDS011;33620;52.340;5.984;2024-03-08T04:11:25;50.65;;;27.67;;
47860;SDS011;33620;52.340;5.984;2024-03-08T04:13:50;44.70;;;26.70;;
47860;SDS011;33620;52.340;5.984;2024-03-08T04:16:17;50.83;;;28.05;;
47860;SDS011;33620;52.340;5.984;2024-03-08T04:18:44;51.13;;;29.50;;
47860;SDS011;33620;52.340;5.984;2024-03-08T04:21:09;46.40;;;27.20;;
47860;SDS011;33620;52.340;5.984;2024-03-08T04:23:34;50.17;;;26.80;;
47860;SDS011;33620;52.340;5.984;2024-03-08T04:26:03;50.20;;;28.25;;
47860;SDS011;33620;52.340;5.984;2024-03-08T04:28:29;46.05;;;26.65;;
47860;SDS011;33620;52.340;5.984;2024-03-08T04:30:55;46.72;;;26.63;;
47860;SDS011;33620;52.340;5.984;2024-03-08T04:33:20;46.97;;;27.10;;
47860;SDS011;33620;52.340;5.984;2024-03-08T04:35:46;50.47;;;27.08;;
47860;SDS011;33620;52.340;5.984;2024-03-08T04:38:12;53.10;;;28.88;;
47860;SDS011;33620;52.340;5.984;2024-03-08T04:40:37;48.78;;;27.30;;
47860;SDS011;33620;52.340;5.984;2024-03-08T04:43:03;49.25;;;27.55;;
47860;SDS011;33620;52.340;5.984;2024-03-08T04:45:28;50.47;;;27.98;;
47860;SDS011;33620;52.340;5.984;2024-03-08T04:47:54;49.38;;;27.90;;
47860;SDS011;33620;52.340;5.984;2024-03-08T04:50:19;50.97;;;27.33;;
47860;SDS011;33620;52.340;5.984;2024-03-08T04:52:44;50.78;;;27.95;;
47860;SDS011;33620;52.340;5.984;2024-03-08T04:55:10;51.08;;;28.98;;
47860;SDS011;33620;52.340;5.984;2024-03-08T04:57:35;47.42;;;28.30;;
47860;SDS011;33620;52.340;5.984;2024-03-08T05:00:04;54.17;;;29.30;;
47860;SDS011;33620;52.340;5.984;2024-03-08T05:02:36;51.33;;;27.92;;
47860;SDS011;33620;52.340;5.984;2024-03-08T05:05:04;46.78;;;27.25;;
47860;SDS011;33620;52.340;5.984;2024-03-08T05:07:31;52.90;;;29.08;;
47860;SDS011;33620;52.340;5.984;2024-03-08T05:09:57;50.22;;;27.77;;
47860;SDS011;33620;52.340;5.984;2024-03-08T05:12:23;51.17;;;28.25;;
47860;SDS011;33620;52.340;5.984;2024-03-08T05:14:48;51.25;;;27.80;;
47860;SDS011;33620;52.340;5.984;2024-03-08T05:17:14;51.13;;;28.88;;
47860;SDS011;33620;52.340;5.984;2024-03-08T05:19:40;50.40;;;28.48;;
47860;SDS011;33620;52.340;5.984;2024-03-08T05:22:05;54.00;;;28.98;;
47860;SDS011;33620;52.340;5.984;2024-03-08T05:24:31;49.78;;;27.65;;
47860;SDS011;33620;52.340;5.984;2024-03-08T05:26:56;50.80;;;28.23;;
47860;SDS011;33620;52.340;5.984;2024-03-08T05:29:21;46.97;;;27.80;;
47860;SDS011;33620;52.340;5.984;2024-03-08T05:31:49;51.45;;;29.30;;
47860;SDS011;33620;52.340;5.984;2024-03-08T05:34:18;52.53;;;28.60;;
47860;SDS011;33620;52.340;5.984;2024-03-08T05:36:44;50.40;;;29.25;;
47860;SDS011;33620;52.340;5.984;2024-03-08T05:39:14;52.30;;;28.48;;
47860;SDS011;33620;52.340;5.984;2024-03-08T05:41:40;50.20;;;28.92;;
47860;SDS011;33620;52.340;5.984;2024-03-08T05:44:05;48.00;;;29.10;;
47860;SDS011;33620;52.340;5.984;2024-03-08T05:46:31;54.25;;;30.23;;
47860;SDS011;33620;52.340;5.984;2024-03-08T05:48:56;55.05;;;30.80;;
47860;SDS011;33620;52.340;5.984;2024-03-08T05:51:23;48.83;;;29.60;;
47860;SDS011;33620;52.340;5.984;2024-03-08T05:53:51;50.45;;;29.55;;
47860;SDS011;33620;52.340;5.984;2024-03-08T05:56:18;53.55;;;31.23;;
47860;SDS011;33620;52.340;5.984;2024-03-08T05:58:43;57.05;;;31.92;;
47860;SDS011;33620;52.340;5.984;2024-03-08T06:01:09;52.63;;;29.48;;
47860;SDS011;33620;52.340;5.984;2024-03-08T06:03:37;55.15;;;32.40;;
47860;SDS011;33620;52.340;5.984;2024-03-08T06:06:09;52.95;;;29.85;;
47860;SDS011;33620;52.340;5.984;2024-03-08T06:08:34;55.00;;;30.83;;
47860;SDS011;33620;52.340;5.984;2024-03-08T06:10:59;50.58;;;29.42;;
47860;SDS011;33620;52.340;5.984;2024-03-08T06:13:27;54.90;;;32.13;;
47860;SDS011;33620;52.340;5.984;2024-03-08T06:15:52;54.42;;;30.60;;
47860;SDS011;33620;52.340;5.984;2024-03-08T06:18:18;55.78;;;30.75;;
47860;SDS011;33620;52.340;5.984;2024-03-08T06:20:43;53.33;;;31.63;;
47860;SDS011;33620;52.340;5.984;2024-03-08T06:23:09;53.95;;;31.38;;
47860;SDS011;33620;52.340;5.984;2024-03-08T06:25:34;51.05;;;31.60;;
47860;SDS011;33620;52.340;5.984;2024-03-08T06:28:00;58.17;;;33.10;;
47860;SDS011;33620;52.340;5.984;2024-03-08T06:30:25;57.78;;;32.35;;
47860;SDS011;33620;52.340;5.984;2024-03-08T06:32:50;57.33;;;32.00;;
47860;SDS011;33620;52.340;5.984;2024-03-08T06:35:16;51.28;;;30.55;;
47860;SDS011;33620;52.340;5.984;2024-03-08T06:37:42;57.67;;;33.40;;
47860;SDS011;33620;52.340;5.984;2024-03-08T06:40:09;54.60;;;30.88;;
47860;SDS011;33620;52.340;5.984;2024-03-08T06:42:38;56.75;;;32.83;;
47860;SDS011;33620;52.340;5.984;2024-03-08T06:45:04;57.53;;;30.50;;
47860;SDS011;33620;52.340;5.984;2024-03-08T06:47:30;54.47;;;31.67;;
47860;SDS011;33620;52.340;5.984;2024-03-08T06:49:57;54.88;;;31.75;;
47860;SDS011;33620;52.340;5.984;2024-03-08T06:52:22;52.60;;;30.88;;
47860;SDS011;33620;52.340;5.984;2024-03-08T06:54:48;52.47;;;30.20;;
47860;SDS011;33620;52.340;5.984;2024-03-08T06:57:14;57.03;;;34.28;;
47860;SDS011;33620;52.340;5.984;2024-03-08T06:59:39;59.38;;;34.30;;
47860;SDS011;33620;52.340;5.984;2024-03-08T07:02:04;51.28;;;30.83;;
47860;SDS011;33620;52.340;5.984;2024-03-08T07:04:34;59.00;;;32.80;;
47860;SDS011;33620;52.340;5.984;2024-03-08T07:07:02;54.85;;;31.20;;
47860;SDS011;33620;52.340;5.984;2024-03-08T07:09:34;56.00;;;32.35;;
47860;SDS011;33620;52.340;5.984;2024-03-08T07:12:00;57.67;;;33.88;;
47860;SDS011;33620;52.340;5.984;2024-03-08T07:14:26;54.10;;;31.73;;
47860;SDS011;33620;52.340;5.984;2024-03-08T07:16:52;56.92;;;33.20;;
47860;SDS011;33620;52.340;5.984;2024-03-08T07:19:17;55.70;;;32.17;;
47860;SDS011;33620;52.340;5.984;2024-03-08T07:21:44;58.70;;;33.70;;
47860;SDS011;33620;52.340;5.984;2024-03-08T07:24:10;57.65;;;33.33;;
47860;SDS011;33620;52.340;5.984;2024-03-08T07:26:58;58.63;;;33.30;;
47860;SDS011;33620;52.340;5.984;2024-03-08T07:29:24;58.58;;;34.20;;
47860;SDS011;33620;52.340;5.984;2024-03-08T07:31:49;55.83;;;32.97;;
47860;SDS011;33620;52.340;5.984;2024-03-08T07:34:38;53.50;;;30.70;;
47860;SDS011;33620;52.340;5.984;2024-03-08T07:37:05;54.40;;;32.55;;
47860;SDS011;33620;52.340;5.984;2024-03-08T07:39:31;59.20;;;31.65;;
47860;SDS011;33620;52.340;5.984;2024-03-08T07:41:56;57.28;;;31.30;;
47860;SDS011;33620;52.340;5.984;2024-03-08T07:44:22;57.63;;;33.50;;
47860;SDS011;33620;52.340;5.984;2024-03-08T07:46:48;56.22;;;32.40;;
47860;SDS011;33620;52.340;5.984;2024-03-08T07:49:14;61.03;;;34.08;;
47860;SDS011;33620;52.340;5.984;2024-03-08T07:51:40;57.33;;;32.60;;
47860;SDS011;33620;52.340;5.984;2024-03-08T07:54:06;62.08;;;33.55;;
47860;SDS011;33620;52.340;5.984;2024-03-08T07:56:34;61.88;;;32.70;;
47860;SDS011;33620;52.340;5.984;2024-03-08T07:59:01;55.50;;;31.45;;
47860;SDS011;33620;52.340;5.984;2024-03-08T08:01:28;55.58;;;31.58;;
47860;SDS011;33620;52.340;5.984;2024-03-08T08:03:55;53.40;;;32.15;;
47860;SDS011;33620;52.340;5.984;2024-03-08T08:06:21;55.38;;;32.65;;
47860;SDS011;33620;52.340;5.984;2024-03-08T08:08:47;56.00;;;32.33;;
47860;SDS011;33620;52.340;5.984;2024-03-08T08:11:12;59.40;;;31.77;;
47860;SDS011;33620;52.340;5.984;2024-03-08T08:13:38;54.83;;;32.35;;
47860;SDS011;33620;52.340;5.984;2024-03-08T08:16:04;55.50;;;31.67;;
47860;SDS011;33620;52.340;5.984;2024-03-08T08:18:31;57.50;;;32.35;;
47860;SDS011;33620;52.340;5.984;2024-03-08T08:20:58;53.05;;;31.77;;
47860;SDS011;33620;52.340;5.984;2024-03-08T08:23:25;59.80;;;33.30;;
47860;SDS011;33620;52.340;5.984;2024-03-08T08:25:50;55.10;;;31.50;;
47860;SDS011;33620;52.340;5.984;2024-03-08T08:28:16;54.15;;;30.67;;
47860;SDS011;33620;52.340;5.984;2024-03-08T08:30:43;53.47;;;30.15;;
47860;SDS011;33620;52.340;5.984;2024-03-08T08:33:08;53.88;;;32.33;;
47860;SDS011;33620;52.340;5.984;2024-03-08T08:35:34;59.05;;;32.47;;
47860;SDS011;33620;52.340;5.984;2024-03-08T08:37:59;52.80;;;30.65;;
47860;SDS011;33620;52.340;5.984;2024-03-08T08:40:25;53.53;;;30.65;;
47860;SDS011;33620;52.340;5.984;2024-03-08T08:42:50;51.47;;;29.77;;
47860;SDS011;33620;52.340;5.984;2024-03-08T08:45:19;52.08;;;30.55;;
47860;SDS011;33620;52.340;5.984;2024-03-08T08:47:44;53.78;;;31.65;;
47860;SDS011;33620;52.340;5.984;2024-03-08T08:50:10;57.40;;;31.67;;
47860;SDS011;33620;52.340;5.984;2024-03-08T08:52:39;55.35;;;32.28;;
47860;SDS011;33620;52.340;5.984;2024-03-08T08:55:05;51.33;;;29.65;;
47860;SDS011;33620;52.340;5.984;2024-03-08T08:57:31;50.65;;;31.02;;
47860;SDS011;33620;52.340;5.984;2024-03-08T08:59:58;55.90;;;32.03;;
47860;SDS011;33620;52.340;5.984;2024-03-08T09:02:23;54.15;;;30.83;;
47860;SDS011;33620;52.340;5.984;2024-03-08T09:04:50;54.50;;;31.50;;
47860;SDS011;33620;52.340;5.984;2024-03-08T09:07:16;55.03;;;30.23;;
47860;SDS011;33620;52.340;5.984;2024-03-08T09:09:43;50.97;;;30.02;;
47860;SDS011;33620;52.340;5.984;2024-03-08T09:12:09;56.80;;;31.08;;
47860;SDS011;33620;52.340;5.984;2024-03-08T09:14:38;50.78;;;30.63;;
47860;SDS011;33620;52.340;5.984;2024-03-08T09:17:06;50.75;;;29.75;;
47860;SDS011;33620;52.340;5.984;2024-03-08T09:19:34;57.30;;;31.70;;
47860;SDS011;33620;52.340;5.984;2024-03-08T09:22:00;51.38;;;30.48;;
47860;SDS011;33620;52.340;5.984;2024-03-08T09:24:25;50.75;;;29.35;;
47860;SDS011;33620;52.340;5.984;2024-03-08T09:26:50;50.60;;;29.85;;
47860;SDS011;33620;52.340;5.984;2024-03-08T09:29:17;51.63;;;30.90;;
47860;SDS011;33620;52.340;5.984;2024-03-08T09:31:42;50.33;;;30.10;;
47860;SDS011;33620;52.340;5.984;2024-03-08T09:34:07;49.97;;;30.20;;
47860;SDS011;33620;52.340;5.984;2024-03-08T09:36:33;52.95;;;30.88;;
47860;SDS011;33620;52.340;5.984;2024-03-08T09:38:59;52.63;;;31.35;;
47860;SDS011;33620;52.340;5.984;2024-03-08T09:41:25;55.25;;;30.73;;
47860;SDS011;33620;52.340;5.984;2024-03-08T09:43:51;52.75;;;31.33;;
47860;SDS011;33620;52.340;5.984;2024-03-08T09:46:16;53.90;;;32.15;;
47860;SDS011;33620;52.340;5.984;2024-03-08T09:48:44;48.92;;;30.45;;
47860;SDS011;33620;52.340;5.984;2024-03-08T09:51:11;51.05;;;31.02;;
47860;SDS011;33620;52.340;5.984;2024-03-08T09:53:40;50.97;;;29.13;;
47860;SDS011;33620;52.340;5.984;2024-03-08T09:56:07;52.28;;;30.83;;
47860;SDS011;33620;52.340;5.984;2024-03-08T09:58:33;47.55;;;28.73;;
47860;SDS011;33620;52.340;5.984;2024-03-08T10:00:58;50.67;;;29.95;;
47860;SDS011;33620;52.340;5.984;2024-03-08T10:03:27;54.85;;;30.52;;
47860;SDS011;33620;52.340;5.984;2024-03-08T10:05:53;50.33;;;30.83;;
47860;SDS011;33620;52.340;5.984;2024-03-08T10:08:21;49.67;;;29.88;;
47860;SDS011;33620;52.340;5.984;2024-03-08T10:10:46;47.08;;;28.35;;
47860;SDS011;33620;52.340;5.984;2024-03-08T10:13:12;50.20;;;29.58;;
47860;SDS011;33620;52.340;5.984;2024-03-08T10:15:39;46.47;;;27.70;;
47860;SDS011;33620;52.340;5.984;2024-03-08T10:18:05;50.88;;;28.95;;
47860;SDS011;33620;52.340;5.984;2024-03-08T10:20:31;50.53;;;29.30;;
47860;SDS011;33620;52.340;5.984;2024-03-08T10:23:02;47.67;;;28.88;;
47860;SDS011;33620;52.340;5.984;2024-03-08T10:25:29;47.47;;;29.60;;
47860;SDS011;33620;52.340;5.984;2024-03-08T10:27:59;51.63;;;29.13;;
47860;SDS011;33620;52.340;5.984;2024-03-08T10:30:24;45.78;;;27.38;;
47860;SDS011;33620;52.340;5.984;2024-03-08T10:32:50;49.47;;;27.92;;
47860;SDS011;33620;52.340;5.984;2024-03-08T10:35:16;45.70;;;27.40;;
47860;SDS011;33620;52.340;5.984;2024-03-08T10:37:47;46.78;;;28.00;;
47860;SDS011;33620;52.340;5.984;2024-03-08T10:40:18;46.75;;;28.10;;
47860;SDS011;33620;52.340;5.984;2024-03-08T10:42:54;48.65;;;29.67;;
47860;SDS011;33620;52.340;5.984;2024-03-08T10:45:39;49.53;;;28.73;;
47860;SDS011;33620;52.340;5.984;2024-03-08T10:51:02;47.55;;;28.13;;
47860;SDS011;33620;52.340;5.984;2024-03-08T10:53:28;45.00;;;26.42;;
47860;SDS011;33620;52.340;5.984;2024-03-08T10:55:55;49.30;;;29.00;;
47860;SDS011;33620;52.340;5.984;2024-03-08T10:58:22;45.78;;;27.63;;
47860;SDS011;33620;52.340;5.984;2024-03-08T11:00:56;51.88;;;28.15;;
47860;SDS011;33620;52.340;5.984;2024-03-08T11:06:09;41.92;;;25.00;;
47860;SDS011;33620;52.340;5.984;2024-03-08T11:08:48;46.92;;;26.73;;
47860;SDS011;33620;52.340;5.984;2024-03-08T11:11:25;45.75;;;26.00;;
47860;SDS011;33620;52.340;5.984;2024-03-08T11:13:57;46.42;;;28.23;;
47860;SDS011;33620;52.340;5.984;2024-03-08T11:18:58;44.30;;;26.52;;
47860;SDS011;33620;52.340;5.984;2024-03-08T11:21:32;46.33;;;27.98;;
47860;SDS011;33620;52.340;5.984;2024-03-08T11:24:08;42.28;;;26.67;;
47860;SDS011;33620;52.340;5.984;2024-03-08T11:26:36;46.83;;;26.88;;
47860;SDS011;33620;52.340;5.984;2024-03-08T11:32:12;44.90;;;26.95;;
47860;SDS011;33620;52.340;5.984;2024-03-08T11:34:39;44.63;;;26.38;;
47860;SDS011;33620;52.340;5.984;2024-03-08T11:37:11;49.88;;;28.27;;
47860;SDS011;33620;52.340;5.984;2024-03-08T11:39:39;43.38;;;26.30;;
47860;SDS011;33620;52.340;5.984;2024-03-08T11:42:11;43.53;;;26.23;;
47860;SDS011;33620;52.340;5.984;2024-03-08T11:44:36;43.45;;;25.48;;
47860;SDS011;33620;52.340;5.984;2024-03-08T11:47:02;43.67;;;25.25;;
47860;SDS011;33620;52.340;5.984;2024-03-08T11:49:32;41.97;;;26.75;;
47860;SDS011;33620;52.340;5.984;2024-03-08T11:51:58;44.50;;;26.80;;
47860;SDS011;33620;52.340;5.984;2024-03-08T11:54:23;44.15;;;25.85;;
47860;SDS011;33620;52.340;5.984;2024-03-08T11:56:51;45.60;;;27.35;;
47860;SDS011;33620;52.340;5.984;2024-03-08T11:59:17;43.08;;;26.20;;
47860;SDS011;33620;52.340;5.984;2024-03-08T12:01:42;44.63;;;26.92;;
47860;SDS011;33620;52.340;5.984;2024-03-08T12:04:11;43.05;;;26.73;;
47860;SDS011;33620;52.340;5.984;2024-03-08T12:06:40;45.58;;;27.33;;
47860;SDS011;33620;52.340;5.984;2024-03-08T12:09:09;40.10;;;25.35;;
47860;SDS011;33620;52.340;5.984;2024-03-08T12:11:38;44.90;;;25.08;;
47860;SDS011;33620;52.340;5.984;2024-03-08T12:14:03;41.58;;;26.02;;
47860;SDS011;33620;52.340;5.984;2024-03-08T12:16:29;44.78;;;26.55;;
47860;SDS011;33620;52.340;5.984;2024-03-08T12:18:55;47.33;;;25.35;;
47860;SDS011;33620;52.340;5.984;2024-03-08T12:21:20;43.13;;;25.13;;
47860;SDS011;33620;52.340;5.984;2024-03-08T12:23:51;41.90;;;25.13;;
47860;SDS011;33620;52.340;5.984;2024-03-08T12:26:34;44.08;;;25.60;;
47860;SDS011;33620;52.340;5.984;2024-03-08T12:31:47;41.47;;;24.55;;
47860;SDS011;33620;52.340;5.984;2024-03-08T12:34:16;41.25;;;23.80;;
47860;SDS011;33620;52.340;5.984;2024-03-08T12:36:45;40.03;;;23.48;;
47860;SDS011;33620;52.340;5.984;2024-03-08T12:39:12;41.83;;;25.10;;
47860;SDS011;33620;52.340;5.984;2024-03-08T12:41:40;41.47;;;25.13;;
47860;SDS011;33620;52.340;5.984;2024-03-08T12:44:06;41.75;;;24.02;;
47860;SDS011;33620;52.340;5.984;2024-03-08T12:46:36;39.17;;;23.25;;
47860;SDS011;33620;52.340;5.984;2024-03-08T12:49:05;41.40;;;24.25;;
47860;SDS011;33620;52.340;5.984;2024-03-08T12:51:32;38.33;;;22.80;;
47860;SDS011;33620;52.340;5.984;2024-03-08T12:53:58;38.33;;;21.42;;
47860;SDS011;33620;52.340;5.984;2024-03-08T12:56:30;34.03;;;20.42;;
47860;SDS011;33620;52.340;5.984;2024-03-08T12:58:57;34.75;;;21.08;;
47860;SDS011;33620;52.340;5.984;2024-03-08T13:01:23;33.92;;;19.98;;
47860;SDS011;33620;52.340;5.984;2024-03-08T13:03:48;34.97;;;19.48;;
47860;SDS011;33620;52.340;5.984;2024-03-08T13:06:16;34.83;;;20.35;;
47860;SDS011;33620;52.340;5.984;2024-03-08T13:08:42;35.85;;;20.90;;
47860;SDS011;33620;52.340;5.984;2024-03-08T13:11:08;34.80;;;19.65;;
47860;SDS011;33620;52.340;5.984;2024-03-08T13:13:38;33.40;;;19.67;;
47860;SDS011;33620;52.340;5.984;2024-03-08T13:16:07;32.17;;;20.25;;
47860;SDS011;33620;52.340;5.984;2024-03-08T13:18:33;33.65;;;19.98;;
47860;SDS011;33620;52.340;5.984;2024-03-08T13:20:59;34.08;;;20.45;;
47860;SDS011;33620;52.340;5.984;2024-03-08T13:23:29;33.75;;;19.63;;
47860;SDS011;33620;52.340;5.984;2024-03-08T13:25:55;34.92;;;21.42;;
47860;SDS011;33620;52.340;5.984;2024-03-08T13:28:22;35.72;;;21.25;;
47860;SDS011;33620;52.340;5.984;2024-03-08T13:30:52;33.67;;;20.05;;
47860;SDS011;33620;52.340;5.984;2024-03-08T13:33:18;31.80;;;19.17;;
47860;SDS011;33620;52.340;5.984;2024-03-08T13:35:44;33.70;;;19.65;;
47860;SDS011;33620;52.340;5.984;2024-03-08T13:38:09;33.90;;;20.15;;
47860;SDS011;33620;52.340;5.984;2024-03-08T13:40:38;31.70;;;19.20;;
47860;SDS011;33620;52.340;5.984;2024-03-08T13:43:05;33.28;;;19.23;;
47860;SDS011;33620;52.340;5.984;2024-03-08T13:45:32;32.97;;;20.50;;
47860;SDS011;33620;52.340;5.984;2024-03-08T13:47:58;30.98;;;18.73;;
47860;SDS011;33620;52.340;5.984;2024-03-08T13:50:24;30.63;;;19.08;;
47860;SDS011;33620;52.340;5.984;2024-03-08T13:52:50;33.00;;;18.90;;
47860;SDS011;33620;52.340;5.984;2024-03-08T13:55:17;30.25;;;18.50;;
47860;SDS011;33620;52.340;5.984;2024-03-08T13:57:43;34.50;;;20.27;;
47860;SDS011;33620;52.340;5.984;2024-03-08T14:00:10;32.70;;;19.45;;
47860;SDS011;33620;52.340;5.984;2024-03-08T14:02:36;32.67;;;21.05;;
47860;SDS011;33620;52.340;5.984;2024-03-08T14:05:02;32.67;;;20.23;;
47860;SDS011;33620;52.340;5.984;2024-03-08T14:07:27;31.52;;;19.08;;
47860;SDS011;33620;52.340;5.984;2024-03-08T14:09:54;34.28;;;20.25;;
47860;SDS011;33620;52.340;5.984;2024-03-08T14:12:19;33.05;;;19.50;;
47860;SDS011;33620;52.340;5.984;2024-03-08T14:14:45;34.33;;;19.83;;
47860;SDS011;33620;52.340;5.984;2024-03-08T14:17:11;31.70;;;19.55;;
47860;SDS011;33620;52.340;5.984;2024-03-08T14:19:41;30.30;;;18.67;;
47860;SDS011;33620;52.340;5.984;2024-03-08T14:22:07;31.88;;;17.63;;
47860;SDS011;33620;52.340;5.984;2024-03-08T14:24:35;34.78;;;19.63;;
47860;SDS011;33620;52.340;5.984;2024-03-08T14:27:01;30.58;;;18.17;;
47860;SDS011;33620;52.340;5.984;2024-03-08T14:29:28;32.03;;;19.27;;
47860;SDS011;33620;52.340;5.984;2024-03-08T14:31:57;30.75;;;18.83;;